Austin, PA

6:36 PM EST on February 11, 2016 (GMT -0500)
Jenkins Hill | | Change Station
CLOSE
Current Station
Personal Weather Station
Location: Coudersport, PA
Elevation: 2150 ft
Nearby Weather Stations
Active Advisory: Wind Chill Watch Active Notice: Local Storm Report

Elev 2150 ft 41.74 °N, 77.97 °W | Updated 55 seconds ago

Overcast
Overcast
9.8 °F
Feels Like 10 °F
N
2.0
Wind Variable Wind from SE
Gusts 3.0 mph

Today
High -- | Low -- °F
--% Chance of Precip.
Yesterday
High -- | Low -- °F
Precip. -- in
Pressure 30.01 in
Visibility 1.8 miles
Clouds Overcast 2100 ft
Windchill 10 °F
Dew Point 6 °F
Humidity 83%
Rainfall 0.00 in
Snow Depth Not available.
7:13 AM 5:39 PM
Waxing Crescent, 15% visible
SPECI KELZ 112320Z AUTO 30013G25KT 1 3/4SM -SN OVC021 M12/M17 A3001 RMK AO2 PK WND 30028/2257 P0000 T11221167 $
Pressure 30.01 in
Visibility 1.8 miles
Clouds Overcast 2100 ft
Windchill 10 °F
Dew Point 6 °F
Humidity 83%
Rainfall 0.00 in
Snow Depth Not available.
7:13 AM 5:39 PM
Waxing Crescent, 15% visible
SPECI KELZ 112320Z AUTO 30013G25KT 1 3/4SM -SN OVC021 M12/M17 A3001 RMK AO2 PK WND 30028/2257 P0000 T11221167 $

10-Day Weather Forecast

Almanac

Astronomy

Feb. 11, 2016 Rise Set
Actual Time
Civil Twilight
Nautical Twilight
Astronomical Twilight
Moon
Length of Visible Light
Length of Day
Tomorrow will be .
, % of the Moon is Illuminated

Today's Extremes

State Highs State Lows

Community

WunderPhotos

Upload Photos

1,892,181 photos uploaded!

WunderBlog® & News

Nearby

Air Quality

  Air Quality AQ Index Pollutant
Not available.

Snow Depth

Station Depth Elevation

Earthquake Activity

City Distance Mag. Time & Date
Minimum magnitude displayed is 2.5.

Coastal Water Temperatures

Place Temperature

Stations

Nearby Weather Stations

Station Location Temp. Windchill Dew Point Humidity Wind Precip. Elev Updated Type
                   

Watches & Warnings

Wind Chill Watch
Issued: 3:06 PM EST Feb. 11, 2016 – National Weather Service

... Wind chill watch in effect from late Friday night through
Sunday morning...

The National Weather Service in State College has issued a wind
chill watch... which is in effect from late Friday night through
Sunday morning.

* Hazards... dangerous wind chills.

* Wind chills... 20 to 30 degrees below zero.

* Timing... minimum wind chills Saturday evening into early
Sunday morning.

* Impacts... potential frostbite to exposed skin in 15 to 30
minutes.

Precautionary/preparedness actions...

If you will be outdoors... dress in layers and wear a hat and
gloves. Young children... the elderly and the homeless are
especially vulnerable to the cold. Appropriate action should be
taken to ensure pets have adequate protection from the cold
temperatures.



MS/bl/eh